Millersburg, Pennsylvania
Current Conditions -  °F | °C
As of 2:53 PM on Friday 31 Oct 2014 (Local Time) from KSEG Reporting Station
Overcast Overcast  
Wind Chill: 51°   Ceiling: 6000
Heat Index: 51°   Visibility: 10mi
Dew Point: 33°   Wind: 0mph
Humidity: 50%   Direction: NA
Pressure: 29.9"   Gusts: NA
Location:  40.54°N, 76.96°W
Report Text: KSEG 311853Z AUTO 00000KT 10SM OVC060 11/01 A2990 RMK AO2 SLP129 T01060006
Loading
Personal Weather Stations






























Interactive Weather Map
Tropical Storm Tracking
New forecast layout! Learn more

10-Day Weather Forecast

Advertisements
Track Severe Weather on mobile